sensor_id;sensor_type;location;lat;lon;timestamp;temperature;humidity
2571;DHT22;1295;51.130;6.732;2022-12-07T00:00:47;4.90;99.90
2571;DHT22;1295;51.130;6.732;2022-12-07T00:03:14;4.80;99.90
2571;DHT22;1295;51.130;6.732;2022-12-07T00:05:40;4.80;99.90
2571;DHT22;1295;51.130;6.732;2022-12-07T00:08:06;4.80;99.90
2571;DHT22;1295;51.130;6.732;2022-12-07T00:10:33;4.80;99.90
2571;DHT22;1295;51.130;6.732;2022-12-07T00:12:57;4.80;99.90
2571;DHT22;1295;51.130;6.732;2022-12-07T00:15:23;4.70;99.90
2571;DHT22;1295;51.130;6.732;2022-12-07T00:17:49;4.70;99.90
2571;DHT22;1295;51.130;6.732;2022-12-07T00:20:15;4.90;99.90
2571;DHT22;1295;51.130;6.732;2022-12-07T00:22:41;4.90;99.90
2571;DHT22;1295;51.130;6.732;2022-12-07T00:25:07;4.90;99.90
2571;DHT22;1295;51.130;6.732;2022-12-07T00:27:32;4.80;99.90
2571;DHT22;1295;51.130;6.732;2022-12-07T00:29:58;4.80;99.90
2571;DHT22;1295;51.130;6.732;2022-12-07T00:32:29;4.90;99.90
2571;DHT22;1295;51.130;6.732;2022-12-07T00:35:05;4.90;99.90
2571;DHT22;1295;51.130;6.732;2022-12-07T00:37:31;5.00;99.90
2571;DHT22;1295;51.130;6.732;2022-12-07T00:39:56;5.10;99.90
2571;DHT22;1295;51.130;6.732;2022-12-07T00:42:22;5.10;99.90
2571;DHT22;1295;51.130;6.732;2022-12-07T00:44:48;5.00;99.90
2571;DHT22;1295;51.130;6.732;2022-12-07T00:47:13;5.00;99.90
2571;DHT22;1295;51.130;6.732;2022-12-07T00:49:39;5.00;99.90
2571;DHT22;1295;51.130;6.732;2022-12-07T00:52:05;4.90;99.90
2571;DHT22;1295;51.130;6.732;2022-12-07T00:54:31;4.90;99.90
2571;DHT22;1295;51.130;6.732;2022-12-07T00:56:58;4.90;99.90
2571;DHT22;1295;51.130;6.732;2022-12-07T00:59:23;4.90;99.90
2571;DHT22;1295;51.130;6.732;2022-12-07T01:01:50;4.90;99.90
2571;DHT22;1295;51.130;6.732;2022-12-07T01:04:15;4.90;99.90
2571;DHT22;1295;51.130;6.732;2022-12-07T01:06:41;4.90;99.90
2571;DHT22;1295;51.130;6.732;2022-12-07T01:09:06;4.90;99.90
2571;DHT22;1295;51.130;6.732;2022-12-07T01:11:32;4.90;99.90
2571;DHT22;1295;51.130;6.732;2022-12-07T01:13:58;5.00;99.90
2571;DHT22;1295;51.130;6.732;2022-12-07T01:16:24;5.00;99.90
2571;DHT22;1295;51.130;6.732;2022-12-07T01:18:51;5.00;99.90
2571;DHT22;1295;51.130;6.732;2022-12-07T01:21:17;5.00;99.90
2571;DHT22;1295;51.130;6.732;2022-12-07T01:23:42;5.00;99.90
2571;DHT22;1295;51.130;6.732;2022-12-07T01:26:10;4.90;99.90
2571;DHT22;1295;51.130;6.732;2022-12-07T01:28:34;4.80;99.90
2571;DHT22;1295;51.130;6.732;2022-12-07T01:31:04;4.80;99.90
2571;DHT22;1295;51.130;6.732;2022-12-07T01:33:29;4.70;99.90
2571;DHT22;1295;51.130;6.732;2022-12-07T01:35:54;4.80;99.90
2571;DHT22;1295;51.130;6.732;2022-12-07T01:38:20;4.80;99.90
2571;DHT22;1295;51.130;6.732;2022-12-07T01:40:45;4.90;99.90
2571;DHT22;1295;51.130;6.732;2022-12-07T01:43:15;4.80;99.90
2571;DHT22;1295;51.130;6.732;2022-12-07T01:45:41;4.90;99.90
2571;DHT22;1295;51.130;6.732;2022-12-07T01:48:05;4.90;99.90
2571;DHT22;1295;51.130;6.732;2022-12-07T01:50:32;4.90;99.90
2571;DHT22;1295;51.130;6.732;2022-12-07T01:52:57;4.90;99.90
2571;DHT22;1295;51.130;6.732;2022-12-07T01:55:23;4.80;99.90
2571;DHT22;1295;51.130;6.732;2022-12-07T01:57:50;4.90;99.90
2571;DHT22;1295;51.130;6.732;2022-12-07T02:00:16;4.90;99.90
2571;DHT22;1295;51.130;6.732;2022-12-07T02:02:49;4.90;99.90
2571;DHT22;1295;51.130;6.732;2022-12-07T02:05:13;4.90;99.90
2571;DHT22;1295;51.130;6.732;2022-12-07T02:07:39;4.90;99.90
2571;DHT22;1295;51.130;6.732;2022-12-07T02:10:17;4.80;99.90
2571;DHT22;1295;51.130;6.732;2022-12-07T02:12:41;4.80;99.90
2571;DHT22;1295;51.130;6.732;2022-12-07T02:15:08;4.80;99.90
2571;DHT22;1295;51.130;6.732;2022-12-07T02:17:40;4.90;99.90
2571;DHT22;1295;51.130;6.732;2022-12-07T02:20:13;4.80;99.90
2571;DHT22;1295;51.130;6.732;2022-12-07T02:23:00;4.80;99.90
2571;DHT22;1295;51.130;6.732;2022-12-07T02:25:37;4.80;99.90
2571;DHT22;1295;51.130;6.732;2022-12-07T02:28:04;4.80;99.90
2571;DHT22;1295;51.130;6.732;2022-12-07T02:30:28;4.70;99.90
2571;DHT22;1295;51.130;6.732;2022-12-07T02:32:59;4.70;99.90
2571;DHT22;1295;51.130;6.732;2022-12-07T02:35:30;4.80;99.90
2571;DHT22;1295;51.130;6.732;2022-12-07T02:38:14;4.80;99.90
2571;DHT22;1295;51.130;6.732;2022-12-07T02:40:43;4.70;99.90
2571;DHT22;1295;51.130;6.732;2022-12-07T02:43:12;4.60;99.90
2571;DHT22;1295;51.130;6.732;2022-12-07T02:45:36;4.70;99.90
2571;DHT22;1295;51.130;6.732;2022-12-07T02:48:10;4.70;99.90
2571;DHT22;1295;51.130;6.732;2022-12-07T02:50:36;4.80;99.90
2571;DHT22;1295;51.130;6.732;2022-12-07T02:53:02;4.80;99.90
2571;DHT22;1295;51.130;6.732;2022-12-07T02:55:31;4.70;99.90
2571;DHT22;1295;51.130;6.732;2022-12-07T02:58:10;4.80;99.90
2571;DHT22;1295;51.130;6.732;2022-12-07T03:00:33;4.70;99.90
2571;DHT22;1295;51.130;6.732;2022-12-07T03:02:59;4.70;99.90
2571;DHT22;1295;51.130;6.732;2022-12-07T03:09:27;4.60;99.90
2571;DHT22;1295;51.130;6.732;2022-12-07T03:11:02;4.70;99.90
2571;DHT22;1295;51.130;6.732;2022-12-07T03:13:42;4.70;99.90
2571;DHT22;1295;51.130;6.732;2022-12-07T03:16:10;4.80;99.90
2571;DHT22;1295;51.130;6.732;2022-12-07T03:18:38;4.80;99.90
2571;DHT22;1295;51.130;6.732;2022-12-07T03:21:04;4.90;99.90
2571;DHT22;1295;51.130;6.732;2022-12-07T03:23:28;5.00;99.90
2571;DHT22;1295;51.130;6.732;2022-12-07T03:25:55;4.90;99.90
2571;DHT22;1295;51.130;6.732;2022-12-07T03:28:20;4.90;99.90
2571;DHT22;1295;51.130;6.732;2022-12-07T03:30:59;4.90;99.90
2571;DHT22;1295;51.130;6.732;2022-12-07T03:33:24;4.90;99.90
2571;DHT22;1295;51.130;6.732;2022-12-07T03:35:51;5.00;99.90
2571;DHT22;1295;51.130;6.732;2022-12-07T03:38:18;4.90;99.90
2571;DHT22;1295;51.130;6.732;2022-12-07T03:40:52;5.00;99.90
2571;DHT22;1295;51.130;6.732;2022-12-07T03:43:16;5.00;99.90
2571;DHT22;1295;51.130;6.732;2022-12-07T03:45:42;5.00;99.90
2571;DHT22;1295;51.130;6.732;2022-12-07T03:48:10;5.00;99.90
2571;DHT22;1295;51.130;6.732;2022-12-07T03:50:41;5.00;99.90
2571;DHT22;1295;51.130;6.732;2022-12-07T03:53:08;5.10;99.90
2571;DHT22;1295;51.130;6.732;2022-12-07T03:55:32;5.00;99.90
2571;DHT22;1295;51.130;6.732;2022-12-07T03:57:59;5.00;99.90
2571;DHT22;1295;51.130;6.732;2022-12-07T04:00:22;5.00;99.90
2571;DHT22;1295;51.130;6.732;2022-12-07T04:02:48;4.80;99.90
2571;DHT22;1295;51.130;6.732;2022-12-07T04:05:14;4.60;99.90
2571;DHT22;1295;51.130;6.732;2022-12-07T04:07:40;4.60;99.90
2571;DHT22;1295;51.130;6.732;2022-12-07T04:10:07;4.80;99.90
2571;DHT22;1295;51.130;6.732;2022-12-07T04:12:34;4.80;99.90
2571;DHT22;1295;51.130;6.732;2022-12-07T04:14:59;4.70;99.90
2571;DHT22;1295;51.130;6.732;2022-12-07T04:17:25;4.80;99.90
2571;DHT22;1295;51.130;6.732;2022-12-07T04:19:50;4.90;99.90
2571;DHT22;1295;51.130;6.732;2022-12-07T04:22:16;4.90;99.90
2571;DHT22;1295;51.130;6.732;2022-12-07T04:24:42;4.90;99.90
2571;DHT22;1295;51.130;6.732;2022-12-07T04:27:08;5.00;99.90
2571;DHT22;1295;51.130;6.732;2022-12-07T04:29:34;5.00;99.90
2571;DHT22;1295;51.130;6.732;2022-12-07T04:31:59;5.00;99.90
2571;DHT22;1295;51.130;6.732;2022-12-07T04:34:25;5.00;99.90
2571;DHT22;1295;51.130;6.732;2022-12-07T04:36:51;4.80;99.90
2571;DHT22;1295;51.130;6.732;2022-12-07T04:39:25;4.80;99.90
2571;DHT22;1295;51.130;6.732;2022-12-07T04:41:46;4.90;99.90
2571;DHT22;1295;51.130;6.732;2022-12-07T04:44:12;5.00;99.90
2571;DHT22;1295;51.130;6.732;2022-12-07T04:46:37;4.90;99.90
2571;DHT22;1295;51.130;6.732;2022-12-07T04:49:03;4.80;99.90
2571;DHT22;1295;51.130;6.732;2022-12-07T04:51:29;4.90;99.90
2571;DHT22;1295;51.130;6.732;2022-12-07T04:53:55;4.90;99.90
2571;DHT22;1295;51.130;6.732;2022-12-07T04:56:20;4.70;99.90
2571;DHT22;1295;51.130;6.732;2022-12-07T04:58:46;4.70;99.90
2571;DHT22;1295;51.130;6.732;2022-12-07T05:01:12;4.80;99.90
2571;DHT22;1295;51.130;6.732;2022-12-07T05:03:37;4.80;99.90
2571;DHT22;1295;51.130;6.732;2022-12-07T05:06:03;4.90;99.90
2571;DHT22;1295;51.130;6.732;2022-12-07T05:08:29;4.80;99.90
2571;DHT22;1295;51.130;6.732;2022-12-07T05:10:54;4.80;99.90
2571;DHT22;1295;51.130;6.732;2022-12-07T05:13:25;4.70;99.90
2571;DHT22;1295;51.130;6.732;2022-12-07T05:15:51;4.80;99.90
2571;DHT22;1295;51.130;6.732;2022-12-07T05:18:17;4.80;99.90
2571;DHT22;1295;51.130;6.732;2022-12-07T05:20:43;4.90;99.90
2571;DHT22;1295;51.130;6.732;2022-12-07T05:23:08;4.80;99.90
2571;DHT22;1295;51.130;6.732;2022-12-07T05:25:34;4.90;99.90
2571;DHT22;1295;51.130;6.732;2022-12-07T05:27:59;4.70;99.90
2571;DHT22;1295;51.130;6.732;2022-12-07T05:30:25;4.60;99.90
2571;DHT22;1295;51.130;6.732;2022-12-07T05:32:51;4.80;99.90
2571;DHT22;1295;51.130;6.732;2022-12-07T05:35:16;4.80;99.90
2571;DHT22;1295;51.130;6.732;2022-12-07T05:37:42;4.80;99.90
2571;DHT22;1295;51.130;6.732;2022-12-07T05:40:09;5.00;99.90
2571;DHT22;1295;51.130;6.732;2022-12-07T05:42:35;5.00;99.90
2571;DHT22;1295;51.130;6.732;2022-12-07T05:45:01;5.00;99.90
2571;DHT22;1295;51.130;6.732;2022-12-07T05:47:27;5.00;99.90
2571;DHT22;1295;51.130;6.732;2022-12-07T05:49:52;4.80;99.90
2571;DHT22;1295;51.130;6.732;2022-12-07T05:52:18;4.70;99.90
2571;DHT22;1295;51.130;6.732;2022-12-07T05:54:43;4.60;99.90
2571;DHT22;1295;51.130;6.732;2022-12-07T05:57:09;4.60;99.90
2571;DHT22;1295;51.130;6.732;2022-12-07T05:59:35;4.40;99.90
2571;DHT22;1295;51.130;6.732;2022-12-07T06:02:01;4.40;99.90
2571;DHT22;1295;51.130;6.732;2022-12-07T06:04:27;4.40;99.90
2571;DHT22;1295;51.130;6.732;2022-12-07T06:06:52;4.30;99.90
2571;DHT22;1295;51.130;6.732;2022-12-07T06:09:17;4.30;99.90
2571;DHT22;1295;51.130;6.732;2022-12-07T06:11:43;4.50;99.90
2571;DHT22;1295;51.130;6.732;2022-12-07T06:14:15;4.80;99.90
2571;DHT22;1295;51.130;6.732;2022-12-07T06:16:40;4.90;99.90
2571;DHT22;1295;51.130;6.732;2022-12-07T06:19:06;4.80;99.90
2571;DHT22;1295;51.130;6.732;2022-12-07T06:21:31;4.80;99.90
2571;DHT22;1295;51.130;6.732;2022-12-07T06:23:57;5.00;99.90
2571;DHT22;1295;51.130;6.732;2022-12-07T06:26:23;5.10;99.90
2571;DHT22;1295;51.130;6.732;2022-12-07T06:28:48;5.10;99.90
2571;DHT22;1295;51.130;6.732;2022-12-07T06:31:14;5.20;99.90
2571;DHT22;1295;51.130;6.732;2022-12-07T06:33:40;4.90;99.90
2571;DHT22;1295;51.130;6.732;2022-12-07T06:36:06;4.50;99.90
2571;DHT22;1295;51.130;6.732;2022-12-07T06:38:32;4.60;99.90
2571;DHT22;1295;51.130;6.732;2022-12-07T06:40:59;4.60;99.90
2571;DHT22;1295;51.130;6.732;2022-12-07T06:43:24;4.60;99.90
2571;DHT22;1295;51.130;6.732;2022-12-07T06:45:50;4.60;99.90
2571;DHT22;1295;51.130;6.732;2022-12-07T06:48:16;4.60;99.90
2571;DHT22;1295;51.130;6.732;2022-12-07T06:50:44;4.80;99.90
2571;DHT22;1295;51.130;6.732;2022-12-07T06:53:08;4.80;99.90
2571;DHT22;1295;51.130;6.732;2022-12-07T06:55:33;4.90;99.90
2571;DHT22;1295;51.130;6.732;2022-12-07T06:57:59;4.70;99.90
2571;DHT22;1295;51.130;6.732;2022-12-07T07:00:25;4.60;99.90
2571;DHT22;1295;51.130;6.732;2022-12-07T07:02:51;4.40;99.90
2571;DHT22;1295;51.130;6.732;2022-12-07T07:05:17;4.40;99.90
2571;DHT22;1295;51.130;6.732;2022-12-07T07:07:42;4.40;99.90
2571;DHT22;1295;51.130;6.732;2022-12-07T07:10:09;4.50;99.90
2571;DHT22;1295;51.130;6.732;2022-12-07T07:12:34;4.40;99.90
2571;DHT22;1295;51.130;6.732;2022-12-07T07:15:00;4.40;99.90
2571;DHT22;1295;51.130;6.732;2022-12-07T07:17:26;4.50;99.90
2571;DHT22;1295;51.130;6.732;2022-12-07T07:19:51;4.60;99.90
2571;DHT22;1295;51.130;6.732;2022-12-07T07:22:17;4.50;99.90
2571;DHT22;1295;51.130;6.732;2022-12-07T07:24:43;4.60;99.90
2571;DHT22;1295;51.130;6.732;2022-12-07T07:27:10;4.40;99.90
2571;DHT22;1295;51.130;6.732;2022-12-07T07:29:35;4.50;99.90
2571;DHT22;1295;51.130;6.732;2022-12-07T07:32:01;4.50;99.90
2571;DHT22;1295;51.130;6.732;2022-12-07T07:34:27;4.60;99.90
2571;DHT22;1295;51.130;6.732;2022-12-07T07:36:53;4.60;99.90
2571;DHT22;1295;51.130;6.732;2022-12-07T07:39:19;4.50;99.90
2571;DHT22;1295;51.130;6.732;2022-12-07T07:41:46;4.30;99.90
2571;DHT22;1295;51.130;6.732;2022-12-07T07:44:11;4.30;99.90
2571;DHT22;1295;51.130;6.732;2022-12-07T07:46:37;4.40;99.90
2571;DHT22;1295;51.130;6.732;2022-12-07T07:49:03;4.40;99.90
2571;DHT22;1295;51.130;6.732;2022-12-07T07:51:29;4.40;99.90
2571;DHT22;1295;51.130;6.732;2022-12-07T07:53:54;4.40;99.90
2571;DHT22;1295;51.130;6.732;2022-12-07T07:56:20;4.40;99.90
2571;DHT22;1295;51.130;6.732;2022-12-07T07:58:46;4.30;99.90
2571;DHT22;1295;51.130;6.732;2022-12-07T08:01:11;4.40;99.90
2571;DHT22;1295;51.130;6.732;2022-12-07T08:03:37;4.40;99.90
2571;DHT22;1295;51.130;6.732;2022-12-07T08:06:03;4.50;99.90
2571;DHT22;1295;51.130;6.732;2022-12-07T08:08:28;4.40;99.90
2571;DHT22;1295;51.130;6.732;2022-12-07T08:10:54;4.40;99.90
2571;DHT22;1295;51.130;6.732;2022-12-07T08:13:20;4.40;99.90
2571;DHT22;1295;51.130;6.732;2022-12-07T08:15:47;4.40;99.90
2571;DHT22;1295;51.130;6.732;2022-12-07T08:18:12;4.30;99.90
2571;DHT22;1295;51.130;6.732;2022-12-07T08:20:38;4.40;99.90
2571;DHT22;1295;51.130;6.732;2022-12-07T08:23:04;4.30;99.90
2571;DHT22;1295;51.130;6.732;2022-12-07T08:25:29;4.40;99.90
2571;DHT22;1295;51.130;6.732;2022-12-07T08:27:55;4.40;99.90
2571;DHT22;1295;51.130;6.732;2022-12-07T08:30:21;4.30;99.90
2571;DHT22;1295;51.130;6.732;2022-12-07T08:32:46;4.30;99.90
2571;DHT22;1295;51.130;6.732;2022-12-07T08:35:12;4.40;99.90
2571;DHT22;1295;51.130;6.732;2022-12-07T08:37:37;4.50;99.90
2571;DHT22;1295;51.130;6.732;2022-12-07T08:40:04;4.50;99.90
2571;DHT22;1295;51.130;6.732;2022-12-07T08:42:30;4.50;99.90
2571;DHT22;1295;51.130;6.732;2022-12-07T08:44:56;4.50;99.90
2571;DHT22;1295;51.130;6.732;2022-12-07T08:47:22;4.50;99.90
2571;DHT22;1295;51.130;6.732;2022-12-07T08:49:47;4.60;99.90
2571;DHT22;1295;51.130;6.732;2022-12-07T08:52:13;4.70;99.90
2571;DHT22;1295;51.130;6.732;2022-12-07T08:54:39;4.70;99.90
2571;DHT22;1295;51.130;6.732;2022-12-07T08:57:05;4.70;99.90
2571;DHT22;1295;51.130;6.732;2022-12-07T08:59:31;4.70;99.90
2571;DHT22;1295;51.130;6.732;2022-12-07T09:01:56;4.80;99.90
2571;DHT22;1295;51.130;6.732;2022-12-07T09:04:22;4.80;99.90
2571;DHT22;1295;51.130;6.732;2022-12-07T09:06:47;4.80;99.90
2571;DHT22;1295;51.130;6.732;2022-12-07T09:09:13;4.70;99.90
2571;DHT22;1295;51.130;6.732;2022-12-07T09:11:39;4.70;99.90
2571;DHT22;1295;51.130;6.732;2022-12-07T09:14:04;4.70;99.90
2571;DHT22;1295;51.130;6.732;2022-12-07T09:16:30;4.70;99.90
2571;DHT22;1295;51.130;6.732;2022-12-07T09:18:56;4.80;99.90
2571;DHT22;1295;51.130;6.732;2022-12-07T09:21:22;4.90;99.90
2571;DHT22;1295;51.130;6.732;2022-12-07T09:23:48;4.90;99.90
2571;DHT22;1295;51.130;6.732;2022-12-07T09:26:14;5.00;99.90
2571;DHT22;1295;51.130;6.732;2022-12-07T09:28:39;4.90;99.90
2571;DHT22;1295;51.130;6.732;2022-12-07T09:31:05;5.00;99.90
2571;DHT22;1295;51.130;6.732;2022-12-07T09:33:31;4.90;99.90
2571;DHT22;1295;51.130;6.732;2022-12-07T09:35:57;5.00;99.90
2571;DHT22;1295;51.130;6.732;2022-12-07T09:38:23;4.90;99.90
2571;DHT22;1295;51.130;6.732;2022-12-07T09:40:50;4.90;99.90
2571;DHT22;1295;51.130;6.732;2022-12-07T09:43:18;4.90;99.90
2571;DHT22;1295;51.130;6.732;2022-12-07T09:45:43;4.90;99.90
2571;DHT22;1295;51.130;6.732;2022-12-07T09:50:41;5.10;99.90
2571;DHT22;1295;51.130;6.732;2022-12-07T09:53:08;5.20;99.90
2571;DHT22;1295;51.130;6.732;2022-12-07T09:55:33;5.20;99.90
2571;DHT22;1295;51.130;6.732;2022-12-07T09:57:58;5.20;99.90
2571;DHT22;1295;51.130;6.732;2022-12-07T10:00:24;5.20;99.90
2571;DHT22;1295;51.130;6.732;2022-12-07T10:02:55;5.20;99.90
2571;DHT22;1295;51.130;6.732;2022-12-07T10:05:25;5.20;99.90
2571;DHT22;1295;51.130;6.732;2022-12-07T10:07:49;5.20;99.90
2571;DHT22;1295;51.130;6.732;2022-12-07T10:10:17;5.20;99.90
2571;DHT22;1295;51.130;6.732;2022-12-07T10:12:55;5.20;99.90
2571;DHT22;1295;51.130;6.732;2022-12-07T10:15:22;5.20;99.90
2571;DHT22;1295;51.130;6.732;2022-12-07T10:17:49;5.20;99.90
2571;DHT22;1295;51.130;6.732;2022-12-07T10:20:19;5.20;99.90
2571;DHT22;1295;51.130;6.732;2022-12-07T10:22:56;5.20;99.90
2571;DHT22;1295;51.130;6.732;2022-12-07T10:25:21;5.20;99.90
2571;DHT22;1295;51.130;6.732;2022-12-07T10:28:00;5.20;99.90
2571;DHT22;1295;51.130;6.732;2022-12-07T10:30:24;5.10;99.90
2571;DHT22;1295;51.130;6.732;2022-12-07T10:32:50;5.20;99.90
2571;DHT22;1295;51.130;6.732;2022-12-07T10:35:25;5.20;99.90
2571;DHT22;1295;51.130;6.732;2022-12-07T10:37:50;5.20;99.90
2571;DHT22;1295;51.130;6.732;2022-12-07T10:40:27;5.20;99.90
2571;DHT22;1295;51.130;6.732;2022-12-07T10:45:26;5.20;99.90
2571;DHT22;1295;51.130;6.732;2022-12-07T10:47:59;5.30;99.90
2571;DHT22;1295;51.130;6.732;2022-12-07T10:50:38;5.30;99.90
2571;DHT22;1295;51.130;6.732;2022-12-07T10:53:15;5.30;99.90
2571;DHT22;1295;51.130;6.732;2022-12-07T10:55:56;5.30;99.90
2571;DHT22;1295;51.130;6.732;2022-12-07T11:00:59;5.20;99.90
2571;DHT22;1295;51.130;6.732;2022-12-07T11:06:24;5.40;99.90
2571;DHT22;1295;51.130;6.732;2022-12-07T11:09:30;5.40;99.90
2571;DHT22;1295;51.130;6.732;2022-12-07T11:11:36;5.70;99.90
2571;DHT22;1295;51.130;6.732;2022-12-07T11:14:25;5.80;99.90
2571;DHT22;1295;51.130;6.732;2022-12-07T11:19:29;5.90;99.90
2571;DHT22;1295;51.130;6.732;2022-12-07T11:22:03;6.20;99.90
2571;DHT22;1295;51.130;6.732;2022-12-07T11:24:35;6.20;99.90
2571;DHT22;1295;51.130;6.732;2022-12-07T11:27:19;6.20;99.90
2571;DHT22;1295;51.130;6.732;2022-12-07T11:35:11;6.70;99.90
2571;DHT22;1295;51.130;6.732;2022-12-07T11:37:34;6.70;99.90
2571;DHT22;1295;51.130;6.732;2022-12-07T11:40:33;6.70;99.90
2571;DHT22;1295;51.130;6.732;2022-12-07T11:42:43;6.20;99.90
2571;DHT22;1295;51.130;6.732;2022-12-07T11:45:17;6.40;99.90
2571;DHT22;1295;51.130;6.732;2022-12-07T11:47:48;6.60;99.90
2571;DHT22;1295;51.130;6.732;2022-12-07T11:50:38;6.60;99.90
2571;DHT22;1295;51.130;6.732;2022-12-07T11:53:04;6.50;99.90
2571;DHT22;1295;51.130;6.732;2022-12-07T11:56:01;6.70;99.90
2571;DHT22;1295;51.130;6.732;2022-12-07T11:58:57;6.70;99.90
2571;DHT22;1295;51.130;6.732;2022-12-07T12:01:35;6.80;99.90
2571;DHT22;1295;51.130;6.732;2022-12-07T12:04:05;7.10;99.90
2571;DHT22;1295;51.130;6.732;2022-12-07T12:06:26;7.50;99.90
2571;DHT22;1295;51.130;6.732;2022-12-07T12:08:56;8.10;99.90
2571;DHT22;1295;51.130;6.732;2022-12-07T12:17:47;7.70;99.90
2571;DHT22;1295;51.130;6.732;2022-12-07T12:20:04;7.00;99.90
2571;DHT22;1295;51.130;6.732;2022-12-07T12:22:34;6.60;99.90
2571;DHT22;1295;51.130;6.732;2022-12-07T12:24:58;7.00;99.90
2571;DHT22;1295;51.130;6.732;2022-12-07T12:27:25;7.40;99.90
2571;DHT22;1295;51.130;6.732;2022-12-07T12:29:52;8.00;99.90
2571;DHT22;1295;51.130;6.732;2022-12-07T12:32:18;7.90;99.90
2571;DHT22;1295;51.130;6.732;2022-12-07T12:35:20;8.20;99.90
2571;DHT22;1295;51.130;6.732;2022-12-07T12:37:42;7.90;99.90
2571;DHT22;1295;51.130;6.732;2022-12-07T12:45:47;8.10;99.90
2571;DHT22;1295;51.130;6.732;2022-12-07T12:48:29;7.70;99.90
2571;DHT22;1295;51.130;6.732;2022-12-07T12:53:31;7.40;99.90
2571;DHT22;1295;51.130;6.732;2022-12-07T12:56:05;7.40;99.90
2571;DHT22;1295;51.130;6.732;2022-12-07T12:58:28;7.70;99.90
2571;DHT22;1295;51.130;6.732;2022-12-07T13:01:31;7.60;99.90
2571;DHT22;1295;51.130;6.732;2022-12-07T13:03:27;7.30;99.90
2571;DHT22;1295;51.130;6.732;2022-12-07T13:06:16;7.40;99.90
2571;DHT22;1295;51.130;6.732;2022-12-07T13:08:29;7.20;99.90
2571;DHT22;1295;51.130;6.732;2022-12-07T13:11:15;7.00;99.90
2571;DHT22;1295;51.130;6.732;2022-12-07T13:13:35;7.20;99.90
2571;DHT22;1295;51.130;6.732;2022-12-07T13:16:36;7.30;99.90
2571;DHT22;1295;51.130;6.732;2022-12-07T13:19:01;7.00;99.90
2571;DHT22;1295;51.130;6.732;2022-12-07T13:21:42;6.70;99.90
2571;DHT22;1295;51.130;6.732;2022-12-07T13:24:12;6.70;99.90
2571;DHT22;1295;51.130;6.732;2022-12-07T13:26:39;6.40;99.90
2571;DHT22;1295;51.130;6.732;2022-12-07T13:29:17;6.70;99.90
2571;DHT22;1295;51.130;6.732;2022-12-07T13:31:47;6.50;99.90
2571;DHT22;1295;51.130;6.732;2022-12-07T13:36:50;6.50;99.90
2571;DHT22;1295;51.130;6.732;2022-12-07T13:39:18;6.40;99.90
2571;DHT22;1295;51.130;6.732;2022-12-07T13:41:43;6.40;99.90
2571;DHT22;1295;51.130;6.732;2022-12-07T13:44:10;6.50;99.90
2571;DHT22;1295;51.130;6.732;2022-12-07T13:46:44;6.60;99.90
2571;DHT22;1295;51.130;6.732;2022-12-07T13:49:18;6.40;99.90
2571;DHT22;1295;51.130;6.732;2022-12-07T13:51:42;6.50;99.90
2571;DHT22;1295;51.130;6.732;2022-12-07T13:54:09;6.60;99.90
2571;DHT22;1295;51.130;6.732;2022-12-07T13:56:34;6.60;99.90
2571;DHT22;1295;51.130;6.732;2022-12-07T13:58:59;6.50;99.90
2571;DHT22;1295;51.130;6.732;2022-12-07T14:01:25;6.40;99.90
2571;DHT22;1295;51.130;6.732;2022-12-07T14:03:50;6.50;99.90
2571;DHT22;1295;51.130;6.732;2022-12-07T14:06:22;6.50;99.90
2571;DHT22;1295;51.130;6.732;2022-12-07T14:08:45;6.50;99.90
2571;DHT22;1295;51.130;6.732;2022-12-07T14:11:14;6.50;99.90
2571;DHT22;1295;51.130;6.732;2022-12-07T14:13:42;6.50;99.90
2571;DHT22;1295;51.130;6.732;2022-12-07T14:18:39;6.40;99.90
2571;DHT22;1295;51.130;6.732;2022-12-07T14:21:22;6.50;99.90
2571;DHT22;1295;51.130;6.732;2022-12-07T14:26:26;6.50;99.90
2571;DHT22;1295;51.130;6.732;2022-12-07T14:29:18;6.50;99.90
2571;DHT22;1295;51.130;6.732;2022-12-07T14:31:21;6.40;99.90
2571;DHT22;1295;51.130;6.732;2022-12-07T14:33:45;6.40;99.90
2571;DHT22;1295;51.130;6.732;2022-12-07T14:36:11;6.40;99.90
2571;DHT22;1295;51.130;6.732;2022-12-07T14:38:36;6.40;99.90
2571;DHT22;1295;51.130;6.732;2022-12-07T14:41:02;6.30;99.90
2571;DHT22;1295;51.130;6.732;2022-12-07T14:43:33;6.30;99.90
2571;DHT22;1295;51.130;6.732;2022-12-07T14:45:59;6.30;99.90
2571;DHT22;1295;51.130;6.732;2022-12-07T14:48:24;6.30;99.90
2571;DHT22;1295;51.130;6.732;2022-12-07T14:50:52;6.40;99.90
2571;DHT22;1295;51.130;6.732;2022-12-07T14:53:18;6.30;99.90
2571;DHT22;1295;51.130;6.732;2022-12-07T14:55:43;6.20;99.90
2571;DHT22;1295;51.130;6.732;2022-12-07T14:58:13;6.20;99.90
2571;DHT22;1295;51.130;6.732;2022-12-07T15:00:39;6.10;99.90
2571;DHT22;1295;51.130;6.732;2022-12-07T15:03:05;6.10;99.90
2571;DHT22;1295;51.130;6.732;2022-12-07T15:05:31;6.20;99.90
2571;DHT22;1295;51.130;6.732;2022-12-07T15:07:56;6.10;99.90
2571;DHT22;1295;51.130;6.732;2022-12-07T15:10:23;6.10;99.90
2571;DHT22;1295;51.130;6.732;2022-12-07T15:12:47;6.10;99.90
2571;DHT22;1295;51.130;6.732;2022-12-07T15:15:13;6.10;99.90
2571;DHT22;1295;51.130;6.732;2022-12-07T15:17:39;6.10;99.90
2571;DHT22;1295;51.130;6.732;2022-12-07T15:20:07;6.00;99.90
2571;DHT22;1295;51.130;6.732;2022-12-07T15:22:31;6.00;99.90
2571;DHT22;1295;51.130;6.732;2022-12-07T15:24:57;5.80;99.90
2571;DHT22;1295;51.130;6.732;2022-12-07T15:27:23;5.90;99.90
2571;DHT22;1295;51.130;6.732;2022-12-07T15:29:48;5.80;99.90
2571;DHT22;1295;51.130;6.732;2022-12-07T15:32:14;5.60;99.90
2571;DHT22;1295;51.130;6.732;2022-12-07T15:34:40;5.80;99.90
2571;DHT22;1295;51.130;6.732;2022-12-07T15:37:05;5.80;99.90
2571;DHT22;1295;51.130;6.732;2022-12-07T15:39:31;5.70;99.90
2571;DHT22;1295;51.130;6.732;2022-12-07T15:42:02;5.60;99.90
2571;DHT22;1295;51.130;6.732;2022-12-07T15:44:33;5.60;99.90
2571;DHT22;1295;51.130;6.732;2022-12-07T15:47:05;5.50;99.90
2571;DHT22;1295;51.130;6.732;2022-12-07T15:49:30;5.50;99.90
2571;DHT22;1295;51.130;6.732;2022-12-07T15:51:57;5.50;99.90
2571;DHT22;1295;51.130;6.732;2022-12-07T15:54:25;5.50;99.90
2571;DHT22;1295;51.130;6.732;2022-12-07T15:56:50;5.50;99.90
2571;DHT22;1295;51.130;6.732;2022-12-07T15:59:15;5.50;99.90
2571;DHT22;1295;51.130;6.732;2022-12-07T16:01:41;5.70;99.90
2571;DHT22;1295;51.130;6.732;2022-12-07T16:04:07;5.80;99.90
2571;DHT22;1295;51.130;6.732;2022-12-07T16:06:32;5.50;99.90
2571;DHT22;1295;51.130;6.732;2022-12-07T16:08:59;5.50;99.90
2571;DHT22;1295;51.130;6.732;2022-12-07T16:11:24;5.40;99.90
2571;DHT22;1295;51.130;6.732;2022-12-07T16:13:50;5.60;99.90
2571;DHT22;1295;51.130;6.732;2022-12-07T16:16:17;5.60;99.90
2571;DHT22;1295;51.130;6.732;2022-12-07T16:18:42;5.50;99.90
2571;DHT22;1295;51.130;6.732;2022-12-07T16:21:08;5.40;99.90
2571;DHT22;1295;51.130;6.732;2022-12-07T16:23:34;5.40;99.90
2571;DHT22;1295;51.130;6.732;2022-12-07T16:26:05;5.50;99.90
2571;DHT22;1295;51.130;6.732;2022-12-07T16:28:29;5.40;99.90
2571;DHT22;1295;51.130;6.732;2022-12-07T16:31:01;5.50;99.90
2571;DHT22;1295;51.130;6.732;2022-12-07T16:33:26;5.50;99.90
2571;DHT22;1295;51.130;6.732;2022-12-07T16:35:52;5.40;99.90
2571;DHT22;1295;51.130;6.732;2022-12-07T16:38:19;5.60;99.90
2571;DHT22;1295;51.130;6.732;2022-12-07T16:40:46;5.60;99.90
2571;DHT22;1295;51.130;6.732;2022-12-07T16:43:10;5.40;99.90
2571;DHT22;1295;51.130;6.732;2022-12-07T16:45:36;5.40;99.90
2571;DHT22;1295;51.130;6.732;2022-12-07T16:48:02;5.50;99.90
2571;DHT22;1295;51.130;6.732;2022-12-07T16:50:33;5.40;99.90
2571;DHT22;1295;51.130;6.732;2022-12-07T16:53:10;5.40;99.90
2571;DHT22;1295;51.130;6.732;2022-12-07T16:55:39;5.40;99.90
2571;DHT22;1295;51.130;6.732;2022-12-07T16:58:05;5.40;99.90
2571;DHT22;1295;51.130;6.732;2022-12-07T17:00:30;5.40;99.90
2571;DHT22;1295;51.130;6.732;2022-12-07T17:02:55;5.30;99.90